El Jobean, Florida
Current Conditions -  °F | °C
As of 8:53 PM on Monday 24 Nov 2014 (Local Time) from KPGD Reporting Station
Clear Clear  
Wind Chill: 73°   Ceiling: Unl
Heat Index: 73°   Visibility: 10mi
Dew Point: 70°   Wind: 7mph
Humidity: 90%   Direction: 160°SSE
Pressure: 30.02"   Gusts: NA
Location:  26.9665°N, 82.2089°W
Report Text: KPGD 250153Z AUTO 16006KT 10SM CLR 23/21 A3002 RMK AO2 SLP167 T02280211
Loading
Personal Weather Stations






























Interactive Weather Map New forecast layout! Learn more

10-Day Weather Forecast

Advertisements
Track Severe Weather on mobile